WEATHER DATA

YESTERDAY
Time Temp. Dewp. Hum. Wind dir Wind speed Wind gust Bar. 1h Prec. 24h Prec.
00:05 16.5 12.8 79 237 0.6 1.7 1004.9 0.0000 0.0000
00:14 16.5 12.8 79 270 0.3 1.1 1004.7 0.0000 0.0000
00:24 16.5 12.7 78 270 0.3 1.4 1004.7 0.0000 0.0000
00:34 16.6 12.6 77 270 0.3 1.1 1004.5 0.0000 0.0000
00:45 16.6 12.9 79 270 0.3 1.1 1004.5 0.0000 0.0000
00:55 16.5 13 80 270 0.3 1.4 1004.7 0.0000 0.0000
01:04 16.5 13 80 237 0.3 1.4 1004.6 0.0000 0.0000
01:15 16.3 12.8 80 201 0.3 1.1 1004.5 0.0000 0.0000
01:25 16.2 12.7 80 225 0.3 1.4 1004.5 0.0000 0.0000
01:35 16.1 12.8 81 234 0.3 1.1 1004.4 0.0000 0.0000
01:45 16.1 12.8 81 204 0.3 1.4 1004.4 0.0000 0.0000
01:56 16 12.9 82 236 0.3 1.4 1004.4 0.0000 0.0000
02:07 15.9 12.8 82 225 0.3 1.4 1004.2 0.0000 0.0000
02:16 15.8 12.7 82 225 0.3 1.1 1004.2 0.0000 0.0000
02:26 15.7 12.6 82 236 0.3 1.4 1004.2 0.0000 0.0000
02:37 15.6 12.5 82 225 0.3 1.1 1004 0.0000 0.0000
02:47 15.6 12.5 82 270 0.3 1.4 1004 0.0000 0.0000
02:57 15.5 12.4 82 210 0.3 1.1 1003.8 0.0000 0.0000
03:07 15.5 12.6 83 225 0.3 1.4 1003.8 0.0000 0.0000
03:17 15.5 12.4 82 192 0.3 1.4 1003.9 0.0000 0.0000
03:23 15.5 12.6 83 270 0.3 1.4 1003.7 0.0000 0.0000
03:33 15.5 12.6 83 198 0.3 1.1 1003.8 0.0000 0.0000
03:43 15.5 12.6 83 270 0.3 1.1 1003.8 0.0000 0.0000
03:53 15.5 12.4 82 270 0.3 1.1 1003.7 0.0000 0.0000
04:03 15.5 12.6 83 270 0.3 1.4 1003.7 0.0000 0.0000
04:13 15.5 12.4 82 270 0.3 1.4 1003.7 0.0000 0.0000
04:23 15.5 12.4 82 270 0.3 0.6 1003.5 0.0000 0.0000
04:34 15.4 12.5 83 315 0.3 1.1 1003.7 0.0000 0.0000
04:43 15.4 12.5 83 45 0.3 1.1 1003.6 0.0000 0.0000
04:53 15.4 12.5 83 315 0.3 1.1 1003.6 0.0000 0.0000
05:04 15.4 12.5 83 270 0.3 1.1 1003.6 0.0000 0.0000
05:14 15.4 12.5 83 270 0.3 1.1 1003.6 0.0000 0.0000
05:24 15.3 12.6 84 315 0.3 1.1 1003.9 0.0000 0.0000
05:33 15.3 12.6 84 240 0.3 1.4 1003.8 0.0000 0.0000
05:44 15.2 12.5 84 270 0.3 1.4 1003.9 0.0000 0.0000
05:54 15.2 12.5 84 0.3 1.1 1003.9 0.0000 0.0000
06:04 15.1 12.4 84 270 0.3 1.1 1003.9 0.0000 0.0000
06:14 15.1 12.6 85 270 0.3 1.4 1003.8 0.0000 0.0000
06:24 15.1 12.6 85 270 0.3 1.1 1004 0.0000 0.0000
06:34 15.1 12.6 85 315 0.3 1.1 1003.9 0.0000 0.0000
06:44 15.1 12.6 85 315 0.3 1.1 1004.1 0.0000 0.0000
06:55 15.2 12.7 85 270 0.3 1.1 1004 0.0000 0.0000
07:05 15.2 12.7 85 270 0.3 1.1 1004.3 0.0000 0.0000
07:15 15.2 12.9 86 270 0.3 1.1 1004.1 0.0000 0.0000
07:25 15.3 13 86 270 0.3 1.1 1004.4 0.0000 0.0000
07:35 15.3 13 86 0.3 1.1 1004.2 0.0000 0.0000
07:45 15.4 13.1 86 0.3 1.1 1004.3 0.0000 0.0000
07:55 15.4 13.1 86 270 0.3 1.1 1004.3 0.0000 0.0000
08:06 15.5 13.2 86 270 0.3 1.1 1004.2 0.0000 0.0000
08:15 15.7 13.5 87 270 0.3 1.1 1004.4 0.0000 0.0000
08:25 15.9 13.6 86 270 0.3 1.4 1004.5 0.0000 0.0000
08:35 16.1 13.6 85 270 0.3 1.1 1004.6 0.0000 0.0000
08:46 16.3 13.8 85 233 0.6 1.4 1004.6 0.0000 0.0000
08:56 16.6 13.9 84 234 1.7 4.4 1004.6 0.0000 0.0000
09:03 16.9 14 83 232 4.7 9.2 1004.6 0.0000 0.0000
09:12 17.3 13.8 80 233 3.1 6.1 1004.7 0.0000 0.0000
09:22 17.7 14 79 230 3.1 5.6 1004.7 0.0000 0.0000
09:33 17.9 14 78 233 3.1 5.8 1004.8 0.0000 0.0000
09:43 18.1 14 77 232 3.3 5.6 1004.6 0.0000 0.0000
09:53 18.2 14.1 77 227 3.1 5.6 1004.9 0.0000 0.0000
10:13 18.7 14.2 75 227 3.6 6.7 1005 0.0000 0.0000
10:23 18.7 14.2 75 223 4.7 7.2 1005.1 0.0000 0.0000
10:33 19 14.5 75 216 6.1 10.3 1005.1 0.0000 0.0000
10:44 19.5 14.5 73 211 6.1 10.8 1005.1 0.0000 0.0000
11:00 19.8 14.6 72 214 7.2 15.3 1005.2 0.0000 0.0000
11:10 20.1 14.7 71 214 7.2 13.1 1005.1 0.0000 0.0000
11:19 20.2 14.6 70 214 4.7 13.1 1005.2 0.0000 0.0000
11:29 20.5 14.6 69 219 4.4 8.9 1005.3 0.0000 0.0000
11:39 20.6 14.9 70 217 4.4 8.6 1005.3 0.0000 0.0000
11:49 20.9 15.2 70 217 3.6 8.9 1005.4 0.0000 0.0000
12:00 21.3 15.4 69 286 3.3 6.4 1005.3 0.0000 0.0000
12:10 21.6 15.4 68 336 3.6 7.8 1005.1 0.0000 0.0000
12:19 21.9 14.8 64 270 5 10.8 1005 0.0000 0.0000
12:30 22.1 15.5 66 343 4.7 8.1 1005 0.0000 0.0000
12:37 22.1 15.5 66 305 4.4 11.7 1004.8 0.0000 0.0000
12:47 22.2 15.6 66 286 5 8.1 1004.8 0.0000 0.0000
12:57 22.1 15.5 66 302 3.3 6.1 1004.9 0.0000 0.0000
13:07 22 15.4 66 227 4.2 8.9 1004.8 0.0000 0.0000
13:17 22.2 15.8 67 300 3.3 7.2 1004.6 0.0000 0.0000
13:28 22.1 15.7 67 247 3.1 10.6 1004.8 0.0000 0.0000
13:38 21.4 15.9 71 225 5 10.3 1004.9 0.3030 0.3000
13:47 19.7 15.6 77 259 1.1 1.9 1004.9 1.3130 1.3000
13:58 18.4 13.9 75 270 0.6 2.8 1004.9 1.7170 1.7000
14:08 17.5 13.6 78 221 0.3 1.7 1004.7 1.9190 1.9000
14:18 17.2 13.9 81 236 0.6 1.4 1004.5 1.9190 1.9000
14:28 17.2 14.1 82 246 0.6 1.4 1004.6 2.1210 2.1000
14:39 18 14.9 82 233 1.1 4.7 1004.7 1.0100 2.1000
14:49 18.7 15.4 81 225 3.1 6.1 1004.8 0.8080 2.1000
14:59 19.2 15.9 81 234 2.8 5.6 1004.7 0.3030 2.1000
15:09 19.7 16.4 81 229 3.1 5.6 1004.9 0.2020 2.1000
15:20 20.2 16.4 79 224 3.1 6.1 1005 0.2020 2.1000
15:29 20.2 15.8 76 228 3.1 5.8 1005 0.0000 2.1000
15:39 19.8 15.5 76 239 1.4 3.1 1005.1 0.1010 2.2000
15:52 19.1 15 77 270 0.3 1.4 1005.5 0.3030 2.4000
16:02 17 14.1 83 248 1.4 3.6 1005.4 6.4670 8.6000
16:13 16.1 14.3 89 232 1.1 1.9 1005.1 6.7700 8.9000
16:23 16.7 15.2 91 270 0.6 1.9 1005.1 6.7700 8.9000
16:24 16.9 15.6 92 238 1.4 5.8 1005 6.7700 8.9000
16:34 17.5 16.2 92 220 4.4 7.5 1004.9 6.6690 8.9000
16:44 18.1 16.6 91 219 5.6 9.2 1005 6.4670 8.9000
16:59 19.4 17.4 88 275 4.4 10.3 1004.9 0.3030 8.9000
17:09 20.1 17.7 86 337 4.7 11.7 1005 0.0000 8.9000
17:19 21.4 18.8 85 329 4.2 9.2 1005 0.0000 8.9000
17:29 21.5 17.9 80 236 4.2 10.3 1005.1 0.0000 8.9000
17:39 21.4 17.8 80 239 5 13.6 1005.2 0.0000 8.9000
17:49 21.1 17.7 81 234 5.6 9.7 1005.1 0.0000 8.9000
18:03 20.8 17.4 81 224 8.1 16.9 1005.1 0.0000 8.9000
18:12 20.8 15.6 72 224 6.4 15.6 1005.2 0.0000 8.9000
18:22 20 14.8 72 240 3.6 6.7 1005.2 0.0000 8.9000
18:42 19.6 15.5 77 245 2.5 6.1 1005.2 0.1010 9.0000
18:44 19.7 15.6 77 245 2.8 6.1 1005.2 0.1010 9.0000
18:54 20.4 15.8 75 245 4.7 8.9 1005.2 0.1010 9.0000
19:03 20.3 15.9 76 236 4.2 6.7 1005.4 0.1010 9.0000
19:14 19.8 15.5 76 248 1.4 3.3 1005.5 0.1010 9.0000
19:24 19.6 15.3 76 270 0.3 1.9 1005.5 0.0000 9.0000
19:34 19.2 14.9 76 254 0.6 1.9 1005.7 0.0000 9.0000
19:44 18.9 14.6 76 270 0.3 1.7 1005.8 0.0000 9.0000
19:54 18.7 14.4 76 244 0.6 1.9 1005.7 0.0000 9.0000
20:04 18.3 14.2 77 252 0.6 2.5 1005.7 0.0000 9.0000
20:14 18 14.1 78 236 0.6 1.7 1006 0.0000 9.0000
20:25 17.7 14 79 237 0.6 1.7 1005.9 0.0000 9.0000
20:35 17.4 13.9 80 245 0.6 1.9 1005.9 0.0000 9.0000
20:44 17.2 13.7 80 246 0.6 1.9 1006.1 0.0000 9.0000
20:54 16.9 13.6 81 247 1.1 1.9 1006.3 0.0000 9.0000
21:05 16.7 13.8 83 244 0.6 1.7 1006.5 0.0000 9.0000
21:15 16.5 13.6 83 234 0.6 1.7 1006.7 0.0000 9.0000
21:25 16.2 13.5 84 236 0.6 1.7 1006.8 0.0000 9.0000
21:35 16 13.5 85 237 0.3 1.1 1006.7 0.0000 9.0000
21:45 16 13.5 85 237 0.6 1.4 1006.9 0.0000 9.0000
21:55 16 13.5 85 237 0.6 1.7 1006.9 0.0000 9.0000
22:05 15.8 13.3 85 241 0.6 1.9 1006.9 0.0000 9.0000
22:16 15.7 13.4 86 246 1.1 1.7 1006.9 0.0000 9.0000
22:25 15.5 13.2 86 252 0.6 1.9 1007.3 0.0000 9.0000
22:35 15.5 13.2 86 249 0.6 1.7 1007.2 0.0000 9.0000
22:46 15.4 13.1 86 270 0.6 1.7 1007.3 0.0000 9.0000
22:56 15.3 13 86 231 0.6 1.7 1007.6 0.0000 9.0000
23:03 15.3 13.2 87 246 1.1 3.3 1007.6 0.3030 9.3000
23:13 15.2 13.4 89 254 0.6 2.5 1007.6 2.0200 11.0000
23:23 14.9 13.3 90 243 0.6 1.9 1007.5 2.1210 11.1000
23:33 14.7 13.2 91 228 1.1 2.5 1007.5 2.1210 11.1000
23:44 14.5 13 91 232 1.1 1.9 1007.6 2.1210 11.1000
23:54 14.4 13.1 92 233 1.1 1.9 1007.7 2.1210

DAY STATISTIC

2021-08-01
TEMPERATURE
AVERAGE
17.5
HIGH
22.2
12:47
LOW
14.4
23:54
PRESSURE
AVERAGE
1005.0
HIGH
1007.7
23:54
LOW
1003.5
04:23
DEWPOINT
AVERAGE
14.0
HIGH
18.8
17:19
LOW
12.4
02:57
HUMIDITY
AVERAGE
80
HIGH
92
16:24
LOW
64
12:19
WIND SPEED
AVERAGE
1.8
HIGH
8.1
18:03
WIND GUST
AVERAGE
4.0
HIGH
16.9
18:03
WIND DIRECTION
PREVAILING
SW
54.2%
N
0.7
NE
0.7
E
0.0
SE
0.0
S
2.8
SW
54.2
W
31.7
NW
7.7
PRECIPITATION
RAIN HOUR
6.8
RAIN DAY
11.1
TEMPERATURE (°C)
LOW
14.4
HIGH
22.2
AVERAGE
17.5
PRESSURE (hpa)
LOW
1003.5
HIGH
1007.7
AVERAGE
1005.0
DEVICE